Time;durP1;ratioP1;P1;durP2;ratioP2;P2;SDS_P1;SDS_P2;PMS_P1;PMS_P2;Temp;Humidity;BMP_temperature;BMP_pressure;BME280_temperature;BME280_humidity;BME280_pressure;Samples;Min_cycle;Max_cycle;Signal;HPM_P1;HPM_P2
2021/11/20 00:00:23;;;;;;;30.40;23.97;;;;;;;;;;5033872;28;20549;-78
2021/11/20 00:02:50;;;;;;;37.93;25.57;;;;;;;;;;5033613;28;20427;-79
2021/11/20 00:05:19;;;;;;;34.60;25.10;;;;;;;;;;5033498;28;20473;-78
2021/11/20 00:07:47;;;;;;;37.77;27.33;;;;;;;;;;5033449;28;20534;-79
2021/11/20 00:10:16;;;;;;;35.07;23.63;;;;;;;;;;5033092;28;20485;-78
2021/11/20 00:12:44;;;;;;;34.97;22.47;;;;;;;;;;5033648;28;21043;-78
2021/11/20 00:15:12;;;;;;;33.27;23.47;;;;;;;;;;5033101;28;20537;-78
2021/11/20 00:17:41;;;;;;;35.87;22.93;;;;;;;;;;5032915;28;21014;-78
2021/11/20 00:20:10;;;;;;;35.20;21.13;;;;;;;;;;5032958;28;20525;-77
2021/11/20 00:22:39;;;;;;;34.90;24.60;;;;;;;;;;5033217;28;20526;-78
2021/11/20 00:25:09;;;;;;;35.73;22.03;;;;;;;;;;5033427;28;20442;-78
2021/11/20 00:27:37;;;;;;;35.03;23.23;;;;;;;;;;5033014;28;20514;-78
2021/11/20 00:30:14;;;;;;;37.90;23.53;;;;;;;;;;5033260;28;20451;-77
2021/11/20 00:32:44;;;;;;;33.20;23.13;;;;;;;;;;5033749;28;20426;-78
2021/11/20 00:35:12;;;;;;;40.47;25.90;;;;;;;;;;5033465;28;20525;-78
2021/11/20 00:37:40;;;;;;;39.43;24.53;;;;;;;;;;5033052;28;20569;-78
2021/11/20 00:40:09;;;;;;;37.53;24.90;;;;;;;;;;5035008;28;20484;-79
2021/11/20 00:42:36;;;;;;;34.93;24.07;;;;;;;;;;5036973;28;20541;-78
2021/11/20 00:45:04;;;;;;;38.00;24.90;;;;;;;;;;5037400;28;20524;-77
2021/11/20 00:47:31;;;;;;;41.20;25.10;;;;;;;;;;5037439;28;20836;-78
2021/11/20 00:50:01;;;;;;;33.20;21.20;;;;;;;;;;5036457;28;20525;-77
2021/11/20 00:52:28;;;;;;;36.23;22.70;;;;;;;;;;5037118;28;20812;-78
2021/11/20 00:54:56;;;;;;;43.17;25.23;;;;;;;;;;5036333;28;20928;-79
2021/11/20 00:57:23;;;;;;;32.60;22.53;;;;;;;;;;5037134;28;20970;-78
2021/11/20 00:59:50;;;;;;;34.27;22.50;;;;;;;;;;5036320;28;20469;-78
2021/11/20 01:02:17;;;;;;;35.70;23.97;;;;;;;;;;5036519;28;20517;-78
2021/11/20 01:04:45;;;;;;;32.07;23.53;;;;;;;;;;5036825;28;20442;-77
2021/11/20 01:07:13;;;;;;;33.47;22.67;;;;;;;;;;5036313;28;20869;-77
2021/11/20 01:09:42;;;;;;;35.23;24.13;;;;;;;;;;5037023;28;20847;-78
2021/11/20 01:12:10;;;;;;;35.17;23.53;;;;;;;;;;5036005;28;20516;-78
2021/11/20 01:14:38;;;;;;;37.07;23.40;;;;;;;;;;5036700;28;20864;-78
2021/11/20 01:17:07;;;;;;;34.63;24.17;;;;;;;;;;5036482;28;20566;-78
2021/11/20 01:19:34;;;;;;;29.80;22.40;;;;;;;;;;5036124;28;20532;-78
2021/11/20 01:22:04;;;;;;;29.40;23.10;;;;;;;;;;5036230;28;21002;-78
2021/11/20 01:24:32;;;;;;;30.93;22.67;;;;;;;;;;5036226;28;20535;-78
2021/11/20 01:26:59;;;;;;;27.93;21.97;;;;;;;;;;5035874;28;20530;-78
2021/11/20 01:29:27;;;;;;;30.63;22.60;;;;;;;;;;5036086;28;20613;-79
2021/11/20 01:31:56;;;;;;;37.57;23.83;;;;;;;;;;5036260;28;20527;-79
2021/11/20 01:34:23;;;;;;;32.07;21.80;;;;;;;;;;5036012;28;20444;-79
2021/11/20 01:36:52;;;;;;;30.97;22.30;;;;;;;;;;5035887;28;20480;-79
2021/11/20 01:39:22;;;;;;;29.77;23.20;;;;;;;;;;5036174;28;20443;-79
2021/11/20 01:41:56;;;;;;;30.63;20.97;;;;;;;;;;5036054;28;20438;-79
2021/11/20 01:44:24;;;;;;;30.00;22.17;;;;;;;;;;5035873;28;20469;-78
2021/11/20 01:46:53;;;;;;;30.63;22.30;;;;;;;;;;5035745;28;20485;-79
2021/11/20 01:49:23;;;;;;;29.00;19.60;;;;;;;;;;5035768;28;20536;-80
2021/11/20 01:51:52;;;;;;;26.10;21.13;;;;;;;;;;5035244;28;20521;-80
2021/11/20 01:54:26;;;;;;;33.33;21.70;;;;;;;;;;5035477;28;20840;-79
2021/11/20 01:56:57;;;;;;;34.03;20.90;;;;;;;;;;5035254;28;20557;-79
2021/11/20 01:59:25;;;;;;;29.30;23.23;;;;;;;;;;5035615;28;20459;-79
2021/11/20 02:01:54;;;;;;;27.67;20.97;;;;;;;;;;5035325;28;20862;-78
2021/11/20 02:04:30;;;;;;;34.37;22.20;;;;;;;;;;5036000;28;20470;-79
2021/11/20 02:07:00;;;;;;;27.07;21.23;;;;;;;;;;5035997;28;20429;-78
2021/11/20 02:09:29;;;;;;;26.70;21.30;;;;;;;;;;5035077;28;20518;-78
2021/11/20 02:11:59;;;;;;;34.07;22.83;;;;;;;;;;5035078;28;20517;-79
2021/11/20 02:14:27;;;;;;;32.40;22.50;;;;;;;;;;5035496;28;20546;-78
2021/11/20 02:16:57;;;;;;;28.43;21.90;;;;;;;;;;5035339;28;20520;-78
2021/11/20 02:19:26;;;;;;;31.33;21.80;;;;;;;;;;5035685;28;20521;-78
2021/11/20 02:21:54;;;;;;;29.40;22.30;;;;;;;;;;5035063;28;20959;-78
2021/11/20 02:24:21;;;;;;;30.93;21.13;;;;;;;;;;5035210;28;20529;-78
2021/11/20 02:26:48;;;;;;;30.23;22.00;;;;;;;;;;5035725;28;20496;-78
2021/11/20 02:29:17;;;;;;;34.77;24.40;;;;;;;;;;5035346;28;21035;-78
2021/11/20 02:31:47;;;;;;;34.07;23.63;;;;;;;;;;5035108;28;20488;-78
2021/11/20 02:34:15;;;;;;;32.50;20.50;;;;;;;;;;5036205;28;20465;-78
2021/11/20 02:36:43;;;;;;;29.77;21.87;;;;;;;;;;5035298;28;21039;-78
2021/11/20 02:39:13;;;;;;;31.03;23.27;;;;;;;;;;5035320;28;20451;-77
2021/11/20 02:41:41;;;;;;;32.67;21.50;;;;;;;;;;5036427;28;20435;-78
2021/11/20 02:44:09;;;;;;;35.50;23.20;;;;;;;;;;5035443;28;20445;-78
2021/11/20 02:46:37;;;;;;;34.73;24.23;;;;;;;;;;5034739;28;21022;-78
2021/11/20 02:49:08;;;;;;;33.90;24.47;;;;;;;;;;5035302;28;20445;-77
2021/11/20 02:51:36;;;;;;;32.17;22.60;;;;;;;;;;5034751;28;20525;-77
2021/11/20 02:54:05;;;;;;;29.50;19.80;;;;;;;;;;5035001;28;20444;-77
2021/11/20 02:56:34;;;;;;;35.50;24.40;;;;;;;;;;5034767;28;20663;-78
2021/11/20 02:59:01;;;;;;;30.43;21.87;;;;;;;;;;5034973;28;20525;-78
2021/11/20 03:01:30;;;;;;;33.40;23.50;;;;;;;;;;5033860;28;20525;-77
2021/11/20 03:03:57;;;;;;;34.40;24.10;;;;;;;;;;5034020;28;20437;-77
2021/11/20 03:06:26;;;;;;;31.63;22.20;;;;;;;;;;5034126;28;20448;-77
2021/11/20 03:08:54;;;;;;;30.20;22.33;;;;;;;;;;5035294;28;20450;-77
2021/11/20 03:11:21;;;;;;;35.90;23.77;;;;;;;;;;5034737;28;20477;-77
2021/11/20 03:13:50;;;;;;;32.50;22.93;;;;;;;;;;5034537;28;20492;-78
2021/11/20 03:16:17;;;;;;;31.40;22.10;;;;;;;;;;5034598;28;20526;-77
2021/11/20 03:18:44;;;;;;;31.03;22.47;;;;;;;;;;5034014;28;20915;-77
2021/11/20 03:21:12;;;;;;;28.83;21.90;;;;;;;;;;5033748;28;20451;-77
2021/11/20 03:23:42;;;;;;;33.20;24.00;;;;;;;;;;5033652;28;20442;-77
2021/11/20 03:26:10;;;;;;;33.63;24.23;;;;;;;;;;5034062;28;20532;-78
2021/11/20 03:28:37;;;;;;;29.63;22.20;;;;;;;;;;5033694;28;20544;-78
2021/11/20 03:31:04;;;;;;;35.47;22.07;;;;;;;;;;5034124;28;20524;-78
2021/11/20 03:33:32;;;;;;;31.07;23.30;;;;;;;;;;5033529;28;20539;-80
2021/11/20 03:35:59;;;;;;;30.27;24.23;;;;;;;;;;5033867;28;20485;-78
2021/11/20 03:38:27;;;;;;;31.93;23.73;;;;;;;;;;5033369;28;20565;-78
2021/11/20 03:40:55;;;;;;;35.93;21.70;;;;;;;;;;5034299;28;20457;-78
2021/11/20 03:43:23;;;;;;;36.50;25.73;;;;;;;;;;5034559;28;20481;-78
2021/11/20 03:45:50;;;;;;;36.40;26.67;;;;;;;;;;5033690;28;20861;-78
2021/11/20 03:48:18;;;;;;;31.13;22.73;;;;;;;;;;5034103;28;20497;-79
2021/11/20 03:50:45;;;;;;;33.13;23.00;;;;;;;;;;5034109;28;20486;-77
2021/11/20 03:53:13;;;;;;;34.60;24.40;;;;;;;;;;5033563;28;20530;-78
2021/11/20 03:55:41;;;;;;;32.60;23.80;;;;;;;;;;5033274;28;20441;-78
2021/11/20 03:58:10;;;;;;;36.30;25.47;;;;;;;;;;5033162;28;20470;-77
2021/11/20 04:00:39;;;;;;;41.30;27.20;;;;;;;;;;5033518;28;20544;-78
2021/11/20 04:03:06;;;;;;;37.10;24.00;;;;;;;;;;5033260;28;20814;-78
2021/11/20 04:05:33;;;;;;;41.43;26.97;;;;;;;;;;5033186;28;20541;-79
2021/11/20 04:08:01;;;;;;;39.63;25.67;;;;;;;;;;5033187;28;20522;-78
2021/11/20 04:10:29;;;;;;;35.67;22.90;;;;;;;;;;5033429;28;20931;-77
2021/11/20 04:12:56;;;;;;;39.63;28.00;;;;;;;;;;5033362;28;20513;-78
2021/11/20 04:15:27;;;;;;;41.70;26.00;;;;;;;;;;5037271;28;20669;-79
2021/11/20 04:17:54;;;;;;;36.80;26.40;;;;;;;;;;5038100;28;20987;-78
2021/11/20 04:20:23;;;;;;;37.97;27.33;;;;;;;;;;5036946;28;20541;-79
2021/11/20 04:22:51;;;;;;;50.33;26.43;;;;;;;;;;5036841;28;20525;-80
2021/11/20 04:25:19;;;;;;;35.47;25.07;;;;;;;;;;5036533;28;20439;-79
2021/11/20 04:27:47;;;;;;;36.37;26.27;;;;;;;;;;5036513;28;20532;-79
2021/11/20 04:30:15;;;;;;;33.30;24.43;;;;;;;;;;5036464;28;20537;-78
2021/11/20 04:32:44;;;;;;;38.37;26.07;;;;;;;;;;5036431;28;20541;-78
2021/11/20 04:35:13;;;;;;;38.23;24.53;;;;;;;;;;5036417;28;20521;-79
2021/11/20 04:37:41;;;;;;;35.40;25.47;;;;;;;;;;5037041;28;20481;-78
2021/11/20 04:40:08;;;;;;;30.27;23.00;;;;;;;;;;5036879;28;20848;-78
2021/11/20 04:42:36;;;;;;;37.90;25.73;;;;;;;;;;5036367;28;21030;-77
2021/11/20 04:45:03;;;;;;;33.17;22.10;;;;;;;;;;5036403;28;20520;-78
2021/11/20 04:47:31;;;;;;;33.77;23.10;;;;;;;;;;5036778;28;20477;-78
2021/11/20 04:50:00;;;;;;;37.67;25.97;;;;;;;;;;5036423;28;20829;-78
2021/11/20 04:52:27;;;;;;;30.93;23.17;;;;;;;;;;5036376;28;20521;-78
2021/11/20 04:54:55;;;;;;;32.20;22.75;;;;;;;;;;5036311;28;20437;-78
2021/11/20 04:57:22;;;;;;;32.53;22.27;;;;;;;;;;5035921;28;20211;-80
2021/11/20 04:59:49;;;;;;;31.27;22.00;;;;;;;;;;5036141;28;20825;-79
2021/11/20 05:02:17;;;;;;;32.60;23.73;;;;;;;;;;5035862;28;20521;-77
2021/11/20 05:04:44;;;;;;;32.13;21.47;;;;;;;;;;5036095;28;20521;-76
2021/11/20 05:07:14;;;;;;;27.70;21.17;;;;;;;;;;5036589;28;20541;-78
2021/11/20 05:09:42;;;;;;;29.00;20.57;;;;;;;;;;5029432;28;20508;-77
2021/11/20 05:12:10;;;;;;;30.07;21.40;;;;;;;;;;5035450;28;21056;-79
2021/11/20 05:14:38;;;;;;;35.37;22.43;;;;;;;;;;5038780;28;20454;-77
2021/11/20 05:17:06;;;;;;;29.70;22.30;;;;;;;;;;5036195;28;20580;-79
2021/11/20 05:19:36;;;;;;;29.87;21.30;;;;;;;;;;5035351;28;21013;-79
2021/11/20 05:22:04;;;;;;;31.73;22.00;;;;;;;;;;5035824;28;20474;-79
2021/11/20 05:24:32;;;;;;;33.63;22.40;;;;;;;;;;5035875;28;20537;-80
2021/11/20 05:27:01;;;;;;;29.43;21.60;;;;;;;;;;5037114;28;20470;-80
2021/11/20 05:29:35;;;;;;;29.70;19.17;;;;;;;;;;5037536;28;20442;-80
2021/11/20 05:32:02;;;;;;;29.13;20.00;;;;;;;;;;5036764;28;20430;-80
2021/11/20 05:34:29;;;;;;;25.90;19.80;;;;;;;;;;5037568;28;20528;-81
2021/11/20 05:36:57;;;;;;;31.70;22.70;;;;;;;;;;5036830;28;20529;-80
2021/11/20 05:39:24;;;;;;;23.53;18.07;;;;;;;;;;5034803;28;20569;-79
2021/11/20 05:41:53;;;;;;;29.17;19.10;;;;;;;;;;5035497;28;20529;-80
2021/11/20 05:44:20;;;;;;;26.30;20.63;;;;;;;;;;5035577;28;20448;-81
2021/11/20 05:46:47;;;;;;;31.00;19.67;;;;;;;;;;5035796;28;20447;-81
2021/11/20 05:49:15;;;;;;;26.97;19.83;;;;;;;;;;5035234;28;20537;-81
2021/11/20 05:51:42;;;;;;;28.10;19.70;;;;;;;;;;5035229;28;20513;-80
2021/11/20 05:54:09;;;;;;;25.20;19.30;;;;;;;;;;5035814;28;20458;-82
2021/11/20 05:56:37;;;;;;;26.70;18.33;;;;;;;;;;5037417;28;20485;-80
2021/11/20 05:59:05;;;;;;;31.57;20.50;;;;;;;;;;5035764;28;20479;-81
2021/11/20 06:01:32;;;;;;;29.13;20.87;;;;;;;;;;5035706;28;20867;-79
2021/11/20 06:04:00;;;;;;;30.53;20.93;;;;;;;;;;5035001;28;20526;-80
2021/11/20 06:06:28;;;;;;;26.60;20.50;;;;;;;;;;5036428;28;20810;-82
2021/11/20 06:08:55;;;;;;;23.20;17.17;;;;;;;;;;5035545;28;20478;-80
2021/11/20 06:11:22;;;;;;;22.73;17.97;;;;;;;;;;5034022;28;20557;-80
2021/11/20 06:13:49;;;;;;;26.33;18.77;;;;;;;;;;5035104;28;20542;-80
2021/11/20 06:16:18;;;;;;;24.97;19.00;;;;;;;;;;5035254;28;20498;-82
2021/11/20 06:18:46;;;;;;;22.87;18.63;;;;;;;;;;5034561;28;20489;-78
2021/11/20 06:21:13;;;;;;;25.03;18.20;;;;;;;;;;5034596;28;20816;-80
2021/11/20 06:23:40;;;;;;;26.07;17.50;;;;;;;;;;5034361;28;20438;-78
2021/11/20 06:26:08;;;;;;;23.80;17.57;;;;;;;;;;5034926;28;20785;-80
2021/11/20 06:28:36;;;;;;;23.03;17.90;;;;;;;;;;5035359;28;20445;-80
2021/11/20 06:31:05;;;;;;;23.30;18.83;;;;;;;;;;5034723;28;20529;-77
2021/11/20 06:33:34;;;;;;;28.33;18.60;;;;;;;;;;5035305;28;20800;-79
2021/11/20 06:36:01;;;;;;;22.30;16.93;;;;;;;;;;5034179;28;20528;-79
2021/11/20 06:38:30;;;;;;;27.37;17.30;;;;;;;;;;5034294;28;20509;-80
2021/11/20 06:41:00;;;;;;;22.80;17.80;;;;;;;;;;5034204;28;20529;-81
2021/11/20 06:43:28;;;;;;;22.50;17.53;;;;;;;;;;5014259;28;20505;-80
2021/11/20 06:45:56;;;;;;;23.77;17.90;;;;;;;;;;5014871;28;20585;-80
2021/11/20 06:48:24;;;;;;;26.37;18.03;;;;;;;;;;5016132;28;20554;-79
2021/11/20 06:50:52;;;;;;;24.10;18.43;;;;;;;;;;5016459;28;20953;-79
2021/11/20 06:53:21;;;;;;;23.10;16.87;;;;;;;;;;5017091;28;20474;-80
2021/11/20 06:55:48;;;;;;;25.03;18.37;;;;;;;;;;5016026;28;20493;-80
2021/11/20 06:58:42;;;;;;;26.43;18.43;;;;;;;;;;5017107;28;20491;-81
2021/11/20 07:01:10;;;;;;;21.80;17.43;;;;;;;;;;5016010;28;20793;-80
2021/11/20 07:03:40;;;;;;;24.43;18.80;;;;;;;;;;5014435;28;20441;-81
2021/11/20 07:06:15;;;;;;;27.00;19.37;;;;;;;;;;5014798;28;20871;-80
2021/11/20 07:08:42;;;;;;;23.40;18.70;;;;;;;;;;5014112;28;20439;-79
2021/11/20 07:11:12;;;;;;;25.73;17.20;;;;;;;;;;5013127;28;20471;-82
2021/11/20 07:13:39;;;;;;;27.27;18.80;;;;;;;;;;5011792;28;20482;-82
2021/11/20 07:16:10;;;;;;;23.47;18.37;;;;;;;;;;5013396;28;20939;-83
2021/11/20 07:18:38;;;;;;;22.90;17.50;;;;;;;;;;5013749;28;20494;-82
2021/11/20 07:21:05;;;;;;;27.30;19.77;;;;;;;;;;5013759;28;20534;-82
2021/11/20 07:23:35;;;;;;;23.30;18.50;;;;;;;;;;5013385;28;21020;-82
2021/11/20 07:26:04;;;;;;;27.27;18.43;;;;;;;;;;5013904;28;20844;-82
2021/11/20 07:28:32;;;;;;;23.00;17.90;;;;;;;;;;5014064;28;20524;-83
2021/11/20 07:30:59;;;;;;;23.87;19.40;;;;;;;;;;5014085;28;20542;-81
2021/11/20 07:33:26;;;;;;;26.27;18.07;;;;;;;;;;5013559;28;20447;-83
2021/11/20 07:35:54;;;;;;;24.50;18.07;;;;;;;;;;5013842;28;20439;-82
2021/11/20 07:38:24;;;;;;;29.30;19.70;;;;;;;;;;5013535;28;20513;-82
2021/11/20 07:40:53;;;;;;;27.27;20.70;;;;;;;;;;5013725;28;20450;-82
2021/11/20 07:43:20;;;;;;;30.40;21.20;;;;;;;;;;5012577;28;20490;-82
2021/11/20 07:45:47;;;;;;;31.20;21.30;;;;;;;;;;5013541;28;20435;-82
2021/11/20 07:48:16;;;;;;;31.70;21.97;;;;;;;;;;5013237;28;20479;-82
2021/11/20 07:50:45;;;;;;;30.60;23.60;;;;;;;;;;5012908;28;20530;-82
2021/11/20 07:53:12;;;;;;;33.80;23.27;;;;;;;;;;5013257;28;20445;-81
2021/11/20 07:55:39;;;;;;;38.00;24.60;;;;;;;;;;5014032;28;20479;-82
2021/11/20 07:58:08;;;;;;;37.80;23.80;;;;;;;;;;5014377;28;20299;-82
2021/11/20 08:00:36;;;;;;;37.13;25.17;;;;;;;;;;5014278;28;20454;-83
2021/11/20 08:03:03;;;;;;;38.37;24.60;;;;;;;;;;5013747;28;20526;-83
2021/11/20 08:05:30;;;;;;;40.27;25.10;;;;;;;;;;5014025;28;20537;-82
2021/11/20 08:07:58;;;;;;;48.30;28.67;;;;;;;;;;5014044;28;20471;-83
2021/11/20 08:10:26;;;;;;;48.93;26.10;;;;;;;;;;5015020;28;20912;-82
2021/11/20 08:12:53;;;;;;;45.87;28.13;;;;;;;;;;5012534;28;20521;-79
2021/11/20 08:15:22;;;;;;;45.70;26.83;;;;;;;;;;5012338;28;20522;-82
2021/11/20 08:17:50;;;;;;;45.13;27.57;;;;;;;;;;5015546;28;20447;-82
2021/11/20 08:20:18;;;;;;;46.10;27.90;;;;;;;;;;5015089;28;20565;-83
2021/11/20 08:22:46;;;;;;;47.83;30.10;;;;;;;;;;5014047;28;20880;-82
2021/11/20 08:25:14;;;;;;;46.77;28.83;;;;;;;;;;5015212;28;20534;-83
2021/11/20 08:27:41;;;;;;;54.43;32.27;;;;;;;;;;5015707;28;20446;-83
2021/11/20 08:30:12;;;;;;;54.47;31.77;;;;;;;;;;5017726;28;20494;-83
2021/11/20 08:32:41;;;;;;;50.67;29.87;;;;;;;;;;5019176;28;20443;-82
2021/11/20 08:35:08;;;;;;;52.00;33.33;;;;;;;;;;5016621;28;20477;-83
2021/11/20 08:37:36;;;;;;;55.40;34.33;;;;;;;;;;5014459;28;20486;-82
2021/11/20 08:40:06;;;;;;;53.63;33.07;;;;;;;;;;5016172;28;20567;-83
2021/11/20 08:42:34;;;;;;;56.03;32.43;;;;;;;;;;5015939;28;20447;-84
2021/11/20 08:45:01;;;;;;;59.63;35.13;;;;;;;;;;5024534;28;20512;-83
2021/11/20 08:47:29;;;;;;;60.73;34.40;;;;;;;;;;5034602;28;20532;-82
2021/11/20 08:49:57;;;;;;;58.97;33.70;;;;;;;;;;5035577;28;20492;-81
2021/11/20 08:52:24;;;;;;;59.20;32.23;;;;;;;;;;5033721;28;20800;-81
2021/11/20 08:54:56;;;;;;;60.07;33.60;;;;;;;;;;5033287;28;20568;-81
2021/11/20 08:57:23;;;;;;;56.87;33.07;;;;;;;;;;5034133;28;20441;-81
2021/11/20 08:59:51;;;;;;;54.50;33.40;;;;;;;;;;5033253;28;20568;-83
2021/11/20 09:02:20;;;;;;;56.70;34.50;;;;;;;;;;5036747;28;20867;-81
2021/11/20 09:04:49;;;;;;;57.10;34.27;;;;;;;;;;5035998;28;20483;-82
2021/11/20 09:07:20;;;;;;;60.50;33.20;;;;;;;;;;5036542;28;20446;-80
2021/11/20 09:09:49;;;;;;;57.93;34.40;;;;;;;;;;5036686;28;20461;-79
2021/11/20 09:12:18;;;;;;;62.60;33.87;;;;;;;;;;5035998;28;20473;-82
2021/11/20 09:14:46;;;;;;;55.53;31.00;;;;;;;;;;5034266;28;20529;-80
2021/11/20 09:17:14;;;;;;;62.80;34.90;;;;;;;;;;5038708;28;20517;-83
2021/11/20 09:19:41;;;;;;;58.90;33.80;;;;;;;;;;5037194;28;20572;-80
2021/11/20 09:22:09;;;;;;;59.10;32.60;;;;;;;;;;5036310;28;20469;-80
2021/11/20 09:24:39;;;;;;;52.53;32.03;;;;;;;;;;5036352;28;20492;-83
2021/11/20 09:27:07;;;;;;;60.07;34.40;;;;;;;;;;5035960;28;20892;-81
2021/11/20 09:29:35;;;;;;;54.13;31.53;;;;;;;;;;5037947;28;20532;-82
2021/11/20 09:32:02;;;;;;;57.70;34.43;;;;;;;;;;5040686;28;20477;-83
2021/11/20 09:34:29;;;;;;;56.87;28.87;;;;;;;;;;5035825;28;20533;-82
2021/11/20 09:36:58;;;;;;;61.73;33.73;;;;;;;;;;5035733;28;20473;-81
2021/11/20 09:39:26;;;;;;;49.33;28.90;;;;;;;;;;5036172;28;20901;-82
2021/11/20 09:42:08;;;;;;;47.93;28.37;;;;;;;;;;5036142;28;20462;-82
2021/11/20 09:44:38;;;;;;;43.37;26.40;;;;;;;;;;5033280;28;20955;-83
2021/11/20 09:47:10;;;;;;;51.97;24.93;;;;;;;;;;5033897;28;20453;-81
2021/11/20 09:49:43;;;;;;;42.27;27.17;;;;;;;;;;5035422;28;20521;-82
2021/11/20 09:52:10;;;;;;;47.20;28.93;;;;;;;;;;5035942;28;20534;-80
2021/11/20 09:54:39;;;;;;;45.03;25.63;;;;;;;;;;5035828;28;20430;-78
2021/11/20 09:57:18;;;;;;;42.47;26.13;;;;;;;;;;5035426;28;20859;-80
2021/11/20 09:59:48;;;;;;;42.57;26.53;;;;;;;;;;5036014;28;20549;-82
2021/11/20 10:02:18;;;;;;;39.67;22.40;;;;;;;;;;5036234;28;20477;-82
2021/11/20 10:04:57;;;;;;;42.97;27.23;;;;;;;;;;5036145;28;20529;-81
2021/11/20 10:07:26;;;;;;;39.87;24.17;;;;;;;;;;5036978;28;20422;-83
2021/11/20 10:09:54;;;;;;;42.20;25.30;;;;;;;;;;5038147;28;20458;-77
2021/11/20 10:12:26;;;;;;;34.60;21.63;;;;;;;;;;5038758;28;20557;-80
2021/11/20 10:14:56;;;;;;;39.30;25.57;;;;;;;;;;5036288;28;20474;-78
2021/11/20 10:17:29;;;;;;;39.70;25.10;;;;;;;;;;5016411;28;20526;-80
2021/11/20 10:19:57;;;;;;;36.63;23.10;;;;;;;;;;5016565;28;20472;-80
2021/11/20 10:22:32;;;;;;;34.83;21.37;;;;;;;;;;5016017;28;20534;-79
2021/11/20 10:25:11;;;;;;;37.07;22.47;;;;;;;;;;5015697;28;20981;-84
2021/11/20 10:27:47;;;;;;;38.63;24.97;;;;;;;;;;5015203;28;20519;-83
2021/11/20 10:30:24;;;;;;;36.87;22.90;;;;;;;;;;5015900;28;20457;-81
2021/11/20 10:32:53;;;;;;;35.80;23.00;;;;;;;;;;5014645;28;20512;-83
2021/11/20 10:35:27;;;;;;;36.27;22.80;;;;;;;;;;5014896;28;20543;-83
2021/11/20 10:37:56;;;;;;;38.10;25.17;;;;;;;;;;5015105;28;20531;-83
2021/11/20 10:40:27;;;;;;;39.07;24.27;;;;;;;;;;5014880;28;20561;-83
2021/11/20 10:42:57;;;;;;;42.83;23.93;;;;;;;;;;5015898;28;20487;-82
2021/11/20 10:45:35;;;;;;;39.90;26.37;;;;;;;;;;5014274;28;20985;-83
2021/11/20 10:48:03;;;;;;;26.47;17.73;;;;;;;;;;5013076;28;20529;-82
2021/11/20 10:50:33;;;;;;;43.77;25.00;;;;;;;;;;5013664;28;20531;-83
2021/11/20 10:53:11;;;;;;;41.70;25.57;;;;;;;;;;5014734;28;20526;-82
2021/11/20 10:55:41;;;;;;;33.07;19.73;;;;;;;;;;5014442;28;20446;-84
2021/11/20 10:58:33;;;;;;;35.83;21.50;;;;;;;;;;5014819;28;20513;-83
2021/11/20 11:01:11;;;;;;;41.83;27.13;;;;;;;;;;5015112;28;20654;-82
2021/11/20 11:03:40;;;;;;;34.27;22.67;;;;;;;;;;5014726;28;20785;-83
2021/11/20 11:06:34;;;;;;;30.50;21.27;;;;;;;;;;5014337;28;20535;-83
2021/11/20 11:09:05;;;;;;;35.10;21.73;;;;;;;;;;5014159;28;20510;-84
2021/11/20 11:11:37;;;;;;;37.00;24.70;;;;;;;;;;5014557;28;20562;-83
2021/11/20 11:14:14;;;;;;;38.23;22.47;;;;;;;;;;5016246;28;20451;-82
2021/11/20 11:16:44;;;;;;;35.10;23.17;;;;;;;;;;5016098;28;20517;-81
2021/11/20 11:19:19;;;;;;;28.80;20.60;;;;;;;;;;5012994;28;20526;-82
2021/11/20 11:21:58;;;;;;;35.77;24.03;;;;;;;;;;5014722;28;20513;-81
2021/11/20 11:24:55;;;;;;;32.40;22.27;;;;;;;;;;5014132;28;20514;-77
2021/11/20 11:27:26;;;;;;;37.27;24.23;;;;;;;;;;5013784;28;20462;-69
2021/11/20 11:30:00;;;;;;;37.70;23.80;;;;;;;;;;5013997;28;20519;-70
2021/11/20 11:32:29;;;;;;;33.23;23.20;;;;;;;;;;5013958;28;20639;-71
2021/11/20 11:34:58;;;;;;;32.87;23.90;;;;;;;;;;5013599;28;20435;-71
2021/11/20 11:37:30;;;;;;;36.33;25.17;;;;;;;;;;5013264;28;20538;-71
2021/11/20 11:40:00;;;;;;;40.97;24.87;;;;;;;;;;5013349;28;20510;-70
2021/11/20 11:42:32;;;;;;;41.63;27.00;;;;;;;;;;5013552;28;20538;-71
2021/11/20 11:45:03;;;;;;;41.97;26.83;;;;;;;;;;5013455;28;20431;-70
2021/11/20 11:47:33;;;;;;;33.30;22.53;;;;;;;;;;5013212;28;20468;-71
2021/11/20 11:50:02;;;;;;;41.93;27.27;;;;;;;;;;5012061;28;21012;-71
2021/11/20 11:52:39;;;;;;;42.33;28.23;;;;;;;;;;5013368;28;20486;-71
2021/11/20 11:55:13;;;;;;;39.97;26.97;;;;;;;;;;5014144;28;20853;-70
2021/11/20 11:58:01;;;;;;;40.17;27.47;;;;;;;;;;5012876;28;20434;-70
2021/11/20 12:00:34;;;;;;;42.00;28.30;;;;;;;;;;4988638;28;20577;-71
2021/11/20 12:03:05;;;;;;;43.80;27.43;;;;;;;;;;5013562;28;20526;-71
2021/11/20 12:05:37;;;;;;;43.77;30.23;;;;;;;;;;5013426;28;20506;-71
2021/11/20 12:08:17;;;;;;;43.10;27.97;;;;;;;;;;5013047;28;20518;-71
2021/11/20 12:10:53;;;;;;;48.13;29.67;;;;;;;;;;5012940;28;20527;-72
2021/11/20 12:13:28;;;;;;;43.37;28.70;;;;;;;;;;5012638;28;20462;-71
2021/11/20 12:16:06;;;;;;;48.63;28.87;;;;;;;;;;5012968;28;20512;-71
2021/11/20 12:18:39;;;;;;;43.67;27.10;;;;;;;;;;5012175;28;20518;-73
2021/11/20 12:21:16;;;;;;;41.00;26.20;;;;;;;;;;5028908;28;20477;-71
2021/11/20 12:23:49;;;;;;;41.57;27.87;;;;;;;;;;5032355;28;20810;-72
2021/11/20 12:26:20;;;;;;;41.80;27.70;;;;;;;;;;5032998;28;20444;-71
2021/11/20 12:29:14;;;;;;;44.03;27.03;;;;;;;;;;5032847;28;20785;-71
2021/11/20 12:31:48;;;;;;;47.17;30.30;;;;;;;;;;4986120;28;20460;-72
2021/11/20 12:34:22;;;;;;;40.43;25.40;;;;;;;;;;5033484;28;20435;-71
2021/11/20 12:37:02;;;;;;;46.40;31.07;;;;;;;;;;5036259;28;20464;-72
2021/11/20 12:39:39;;;;;;;44.23;27.10;;;;;;;;;;5036659;28;20858;-72
2021/11/20 12:42:21;;;;;;;46.43;29.10;;;;;;;;;;5036711;28;20553;-72
2021/11/20 12:44:56;;;;;;;48.03;30.70;;;;;;;;;;5036500;28;20524;-72
2021/11/20 12:47:29;;;;;;;43.50;27.90;;;;;;;;;;5036839;28;20512;-71
2021/11/20 12:50:04;;;;;;;54.20;33.83;;;;;;;;;;5030999;28;20517;-71
2021/11/20 12:52:33;;;;;;;54.60;31.90;;;;;;;;;;5016238;28;20473;-71
2021/11/20 12:55:04;;;;;;;47.60;29.93;;;;;;;;;;5016525;28;20803;-72
2021/11/20 12:57:41;;;;;;;42.37;27.37;;;;;;;;;;5016493;28;20941;-72
2021/11/20 13:00:14;;;;;;;44.90;28.27;;;;;;;;;;5016550;28;20822;-71
2021/11/20 13:02:43;;;;;;;49.33;30.17;;;;;;;;;;5016748;28;20463;-72
2021/11/20 13:05:14;;;;;;;49.40;31.17;;;;;;;;;;5017248;28;20517;-71
2021/11/20 13:07:48;;;;;;;39.93;22.83;;;;;;;;;;5016357;28;20541;-71
2021/11/20 13:10:19;;;;;;;42.07;27.07;;;;;;;;;;5016920;28;20458;-72
2021/11/20 13:12:56;;;;;;;46.70;28.57;;;;;;;;;;5016521;28;20471;-72
2021/11/20 13:15:26;;;;;;;42.23;28.90;;;;;;;;;;5016698;28;20459;-72
2021/11/20 13:18:05;;;;;;;46.27;29.97;;;;;;;;;;5016235;28;20507;-71
2021/11/20 13:20:35;;;;;;;44.40;27.50;;;;;;;;;;5019233;28;20996;-72
2021/11/20 13:23:13;;;;;;;50.97;31.80;;;;;;;;;;5035283;28;20529;-72
2021/11/20 13:26:08;;;;;;;40.20;24.13;;;;;;;;;;5035926;28;20838;-71
2021/11/20 13:28:44;;;;;;;42.50;26.27;;;;;;;;;;5035342;28;20500;-73
2021/11/20 13:31:13;;;;;;;43.67;29.07;;;;;;;;;;5035349;28;20438;-71
2021/11/20 13:33:48;;;;;;;48.50;29.03;;;;;;;;;;5035296;28;20934;-76
2021/11/20 13:36:15;;;;;;;40.83;27.87;;;;;;;;;;5035176;28;20423;-76
2021/11/20 13:38:43;;;;;;;51.67;29.30;;;;;;;;;;5035380;28;20474;-72
2021/11/20 13:41:11;;;;;;;43.57;28.00;;;;;;;;;;5035377;28;20486;-78
2021/11/20 13:43:46;;;;;;;47.80;30.97;;;;;;;;;;5035576;28;20448;-76
2021/11/20 13:46:16;;;;;;;41.23;25.07;;;;;;;;;;5035454;28;20916;-79
2021/11/20 13:48:45;;;;;;;44.33;28.47;;;;;;;;;;5035550;28;20506;-77
2021/11/20 13:51:16;;;;;;;41.30;27.27;;;;;;;;;;5028605;28;20479;-74
2021/11/20 13:53:48;;;;;;;44.67;28.20;;;;;;;;;;5015040;28;20476;-75
2021/11/20 13:56:18;;;;;;;44.80;29.30;;;;;;;;;;5015632;28;20522;-73
2021/11/20 13:58:47;;;;;;;45.90;29.60;;;;;;;;;;5016339;28;20546;-74
2021/11/20 14:01:18;;;;;;;50.03;31.63;;;;;;;;;;5014794;28;20983;-77
2021/11/20 14:03:52;;;;;;;46.53;30.17;;;;;;;;;;5015186;28;20446;-74
2021/11/20 14:06:20;;;;;;;38.07;23.90;;;;;;;;;;5015273;28;20570;-74
2021/11/20 14:08:47;;;;;;;46.47;28.57;;;;;;;;;;5014528;28;20567;-74
2021/11/20 14:11:17;;;;;;;53.00;29.07;;;;;;;;;;5014584;28;21015;-73
2021/11/20 14:13:45;;;;;;;50.70;29.30;;;;;;;;;;5014705;28;20475;-73
2021/11/20 14:16:15;;;;;;;44.00;27.63;;;;;;;;;;5014554;28;20443;-71
2021/11/20 14:18:47;;;;;;;45.27;27.77;;;;;;;;;;5019549;28;20546;-73
2021/11/20 14:21:14;;;;;;;44.80;28.27;;;;;;;;;;5030910;28;20477;-72
2021/11/20 14:23:44;;;;;;;44.37;29.13;;;;;;;;;;5013971;28;20538;-74
2021/11/20 14:26:12;;;;;;;47.70;30.37;;;;;;;;;;5015483;28;20469;-72
2021/11/20 14:28:40;;;;;;;57.43;34.33;;;;;;;;;;5014557;28;20525;-71
2021/11/20 14:31:11;;;;;;;51.33;29.33;;;;;;;;;;5014412;28;20533;-72